createdAt,value
2022-11-01T00:02:14.467Z,74.61
2022-11-01T00:04:42.483Z,75.30
2022-11-01T00:07:10.157Z,74.55
2022-11-01T00:09:37.874Z,75.66
2022-11-01T00:12:05.955Z,74.83
2022-11-01T00:14:33.559Z,75.75
2022-11-01T00:17:01.165Z,75.55
2022-11-01T00:19:29.042Z,75.23
2022-11-01T00:21:56.984Z,75.31
2022-11-01T00:24:25.233Z,75.65
2022-11-01T00:26:53.064Z,74.96
2022-11-01T00:29:20.564Z,75.38
2022-11-01T00:31:48.269Z,75.35
2022-11-01T00:34:16.977Z,75.66
2022-11-01T00:36:44.567Z,75.85
2022-11-01T00:39:15.684Z,76.36
2022-11-01T00:41:43.688Z,76.73
2022-11-01T00:44:11.269Z,76.18
2022-11-01T00:46:38.776Z,75.99
2022-11-01T00:49:06.599Z,75.62
2022-11-01T00:51:34.189Z,74.90
2022-11-01T00:54:01.761Z,75.41
2022-11-01T00:56:29.553Z,76.02
2022-11-01T00:58:57.107Z,75.34
2022-11-01T01:01:24.705Z,74.49
2022-11-01T01:03:52.815Z,75.09
2022-11-01T01:06:20.683Z,75.51
2022-11-01T01:08:48.411Z,75.25
2022-11-01T01:11:16.569Z,75.61
2022-11-01T01:13:44.154Z,75.81
2022-11-01T01:16:12.660Z,75.52
2022-11-01T01:18:41.210Z,75.87
2022-11-01T01:21:09.277Z,75.84
2022-11-01T01:23:37.043Z,76.60
2022-11-01T01:26:09.517Z,76.61
2022-11-01T01:28:41.856Z,75.09
2022-11-01T01:31:14.075Z,75.98
2022-11-01T01:33:41.703Z,75.24
2022-11-01T01:36:09.616Z,75.32
2022-11-01T01:38:37.553Z,74.03
2022-11-01T01:41:24.523Z,75.70
2022-11-01T01:43:52.523Z,75.88
2022-11-01T01:46:20.584Z,75.35
2022-11-01T01:48:52.259Z,75.68
2022-11-01T01:51:26.724Z,75.66
2022-11-01T01:53:56.186Z,75.74
2022-11-01T01:56:27.785Z,76.24
2022-11-01T01:59:02.473Z,75.39
2022-11-01T02:01:31.620Z,76.00
2022-11-01T02:04:02.611Z,75.75
2022-11-01T02:06:33.424Z,76.07
2022-11-01T02:09:03.360Z,75.76
2022-11-01T02:11:30.939Z,75.59
2022-11-01T02:13:58.917Z,75.37
2022-11-01T02:17:24.183Z,74.82
2022-11-01T02:20:32.316Z,74.92
2022-11-01T02:23:29.389Z,76.04
2022-11-01T02:25:59.674Z,75.81
2022-11-01T02:28:39.516Z,75.25
2022-11-01T02:31:33.045Z,75.27
2022-11-01T02:34:13.300Z,76.03
2022-11-01T02:36:46.920Z,75.94
2022-11-01T02:39:23.362Z,76.16
2022-11-01T02:42:09.962Z,76.30
2022-11-01T02:44:42.266Z,74.76
2022-11-01T02:47:12.139Z,74.99
2022-11-01T02:49:46.894Z,76.09
2022-11-01T02:52:19.505Z,76.79
2022-11-01T02:54:53.736Z,77.64
2022-11-01T02:57:28.945Z,76.51
2022-11-01T03:00:03.425Z,75.13
2022-11-01T03:02:42.841Z,75.89
2022-11-01T03:05:19.570Z,77.27
2022-11-01T03:07:51.636Z,77.18
2022-11-01T03:10:21.441Z,75.60
2022-11-01T03:13:04.030Z,75.96
2022-11-01T03:15:39.904Z,75.99
2022-11-01T03:18:18.941Z,76.15
2022-11-01T03:20:59.320Z,76.34
2022-11-01T03:23:36.250Z,76.41
2022-11-01T03:26:09.031Z,75.42
2022-11-01T03:28:41.547Z,73.89
2022-11-01T03:31:16.461Z,73.95
2022-11-01T03:33:49.081Z,74.35
2022-11-01T03:36:19.887Z,73.58
2022-11-01T03:39:12.170Z,73.51
2022-11-01T03:41:45.009Z,73.22
2022-11-01T03:44:13.557Z,72.64
2022-11-01T03:46:42.416Z,72.50
2022-11-01T03:49:10.071Z,73.91
2022-11-01T03:51:37.623Z,74.32
2022-11-01T03:54:10.948Z,73.69
2022-11-01T03:56:41.701Z,75.47
2022-11-01T03:59:11.073Z,73.83
2022-11-01T04:01:38.793Z,73.68
2022-11-01T04:04:06.963Z,73.38
2022-11-01T04:06:34.490Z,73.86
2022-11-01T04:09:02.113Z,74.48
2022-11-01T04:11:30.006Z,73.66
2022-11-01T04:14:17.499Z,73.21
2022-11-01T04:17:04.366Z,74.57
2022-11-01T04:19:51.013Z,75.01
2022-11-01T04:22:22.066Z,75.54
2022-11-01T04:24:52.014Z,75.34
2022-11-01T04:27:19.896Z,75.44
2022-11-01T04:29:47.713Z,75.85
2022-11-01T04:32:15.224Z,75.72
2022-11-01T04:34:43.145Z,75.62
2022-11-01T04:37:11.759Z,75.03
2022-11-01T04:39:39.501Z,75.51
2022-11-01T04:42:07.473Z,75.14
2022-11-01T04:44:35.040Z,74.46
2022-11-01T04:47:02.794Z,73.95
2022-11-01T04:49:33.575Z,73.32
2022-11-01T04:52:01.311Z,73.94
2022-11-01T04:54:33.370Z,74.91
2022-11-01T04:57:01.290Z,73.03
2022-11-01T04:59:28.928Z,72.00
2022-11-01T05:01:56.537Z,72.09
2022-11-01T05:04:24.460Z,72.14
2022-11-01T05:06:52.042Z,72.39
2022-11-01T05:09:19.589Z,72.10
2022-11-01T05:11:47.496Z,72.88
2022-11-01T05:14:15.021Z,73.00
2022-11-01T05:16:42.571Z,73.53
2022-11-01T05:19:10.394Z,74.02
2022-11-01T05:21:37.915Z,73.29
2022-11-01T05:24:05.689Z,74.24
2022-11-01T05:26:34.101Z,73.91
2022-11-01T05:29:08.851Z,75.93
2022-11-01T05:31:41.275Z,75.59
2022-11-01T05:34:08.859Z,75.04
2022-11-01T05:36:36.443Z,75.65
2022-11-01T05:39:04.369Z,74.22
2022-11-01T05:41:31.985Z,74.91
2022-11-01T05:43:59.543Z,75.12
2022-11-01T05:46:27.471Z,78.02
2022-11-01T05:48:54.982Z,78.13
2022-11-01T05:51:23.040Z,76.09
2022-11-01T05:53:51.437Z,75.89
2022-11-01T05:56:19.099Z,79.48
2022-11-01T05:58:47.450Z,77.03
2022-11-01T06:01:17.290Z,78.10
2022-11-01T06:03:50.067Z,78.77
2022-11-01T06:06:17.643Z,77.78
2022-11-01T06:08:45.549Z,78.02
2022-11-01T06:11:13.154Z,77.22
2022-11-01T06:13:40.675Z,76.08
2022-11-01T06:16:08.812Z,77.14
2022-11-01T06:18:36.447Z,78.80
2022-11-01T06:21:04.219Z,77.78
2022-11-01T06:23:32.147Z,79.50
2022-11-01T06:26:03.803Z,77.90
2022-11-01T06:28:32.098Z,77.41
2022-11-01T06:31:02.134Z,77.76
2022-11-01T06:33:31.382Z,77.92
2022-11-01T06:35:58.976Z,77.98
2022-11-01T06:38:26.917Z,79.16
2022-11-01T06:40:54.504Z,78.17
2022-11-01T06:43:22.482Z,77.51
2022-11-01T06:45:50.760Z,79.04
2022-11-01T06:48:18.418Z,81.28
2022-11-01T06:50:45.903Z,79.53
2022-11-01T06:53:13.763Z,78.55
2022-11-01T06:55:41.373Z,79.79
2022-11-01T06:58:09.381Z,78.57
2022-11-01T07:00:37.273Z,77.68
2022-11-01T07:03:07.820Z,77.64
2022-11-01T07:05:37.764Z,76.87
2022-11-01T07:08:12.856Z,77.54
2022-11-01T07:10:43.065Z,78.26
2022-11-01T07:13:13.649Z,79.84
2022-11-01T07:15:41.479Z,78.38
2022-11-01T07:18:09.014Z,78.73
2022-11-01T07:20:43.793Z,79.06
2022-11-01T07:23:16.090Z,78.37
2022-11-01T07:25:44.987Z,75.34
2022-11-01T07:28:12.687Z,75.45
2022-11-01T07:30:40.357Z,74.74
2022-11-01T07:33:08.348Z,76.38
2022-11-01T07:35:36.072Z,76.27
2022-11-01T07:38:06.617Z,76.26
2022-11-01T07:40:40.796Z,76.23
2022-11-01T07:43:08.708Z,79.79
2022-11-01T07:45:36.659Z,76.15
2022-11-01T07:48:10.197Z,75.76
2022-11-01T07:50:39.701Z,75.04
2022-11-01T07:53:10.316Z,77.25
2022-11-01T07:55:38.517Z,75.58
2022-11-01T07:58:06.929Z,75.19
2022-11-01T08:03:15.263Z,74.85
2022-11-01T08:05:43.760Z,74.78
2022-11-01T08:08:12.324Z,74.93
2022-11-01T08:10:40.581Z,75.45
2022-11-01T08:13:07.982Z,74.68
2022-11-01T08:15:35.941Z,75.80
2022-11-01T08:18:03.835Z,75.09
2022-11-01T08:20:31.874Z,75.40
2022-11-01T08:23:00.026Z,75.31
2022-11-01T08:25:27.654Z,75.80
2022-11-01T08:27:55.323Z,76.60
2022-11-01T08:30:23.834Z,76.62
2022-11-01T08:32:58.493Z,75.14
2022-11-01T08:35:26.420Z,75.63
2022-11-01T08:37:55.036Z,78.39
2022-11-01T08:40:23.063Z,77.69
2022-11-01T08:42:51.425Z,77.54
2022-11-01T08:45:19.223Z,78.66
2022-11-01T08:47:46.931Z,78.75
2022-11-01T08:50:17.012Z,77.25
2022-11-01T08:52:44.784Z,75.53
2022-11-01T08:55:13.312Z,77.86
2022-11-01T08:57:41.283Z,75.57
2022-11-01T09:00:11.867Z,76.54
2022-11-01T09:02:39.727Z,77.60
2022-11-01T09:05:08.688Z,78.81
2022-11-01T09:07:37.314Z,77.92
2022-11-01T09:10:06.302Z,78.33
2022-11-01T09:12:35.033Z,79.11
2022-11-01T09:15:03.619Z,76.00
2022-11-01T09:17:31.239Z,75.96
2022-11-01T09:19:59.125Z,75.80
2022-11-01T09:22:26.718Z,78.50
2022-11-01T09:24:56.952Z,75.86
2022-11-01T09:27:25.208Z,74.96
2022-11-01T09:29:52.900Z,74.64
2022-11-01T09:32:20.412Z,74.27
2022-11-01T09:34:49.223Z,73.51
2022-11-01T09:37:17.316Z,72.91
2022-11-01T09:39:45.037Z,72.38
2022-11-01T09:42:32.562Z,71.56
2022-11-01T09:45:18.013Z,72.22
2022-11-01T09:47:51.111Z,73.75
2022-11-01T09:50:33.760Z,72.39
2022-11-01T09:53:04.782Z,72.27
2022-11-01T09:55:46.242Z,73.08
2022-11-01T09:58:21.480Z,73.79
2022-11-01T10:01:15.574Z,73.30
2022-11-01T10:04:15.777Z,72.98
2022-11-01T10:06:49.987Z,73.74
2022-11-01T10:09:45.896Z,74.05
2022-11-01T10:12:35.369Z,73.23
2022-11-01T10:15:10.661Z,72.47
2022-11-01T10:17:53.277Z,72.10
2022-11-01T10:20:30.344Z,73.89
2022-11-01T10:22:59.480Z,72.67
2022-11-01T10:25:33.810Z,73.22
2022-11-01T10:28:22.811Z,72.96
2022-11-01T10:31:18.477Z,73.32
2022-11-01T10:33:55.359Z,73.34
2022-11-01T10:36:34.006Z,74.11
2022-11-01T10:42:20.637Z,75.40
2022-11-01T10:45:14.786Z,73.73
2022-11-01T10:47:58.337Z,73.63
2022-11-01T10:50:30.635Z,74.19
2022-11-01T10:53:12.321Z,72.29
2022-11-01T10:55:44.457Z,71.14
2022-11-01T10:58:34.618Z,72.16
2022-11-01T11:01:05.675Z,72.79
2022-11-01T11:03:34.698Z,71.33
2022-11-01T11:06:10.630Z,71.86
2022-11-01T11:08:42.078Z,71.36
2022-11-01T11:11:15.948Z,70.29
2022-11-01T11:13:48.714Z,70.47
2022-11-01T11:16:31.205Z,70.81
2022-11-01T11:19:01.359Z,71.18
2022-11-01T11:21:34.689Z,70.21
2022-11-01T11:24:03.667Z,70.08
2022-11-01T11:29:18.791Z,70.40
2022-11-01T11:31:56.708Z,69.11
2022-11-01T11:34:41.744Z,69.48
2022-11-01T11:37:20.242Z,71.03
2022-11-01T11:40:17.097Z,70.87
2022-11-01T11:42:46.175Z,69.98
2022-11-01T11:45:26.768Z,70.11
2022-11-01T11:47:58.175Z,70.19
2022-11-01T11:50:32.838Z,69.39
2022-11-01T11:53:06.607Z,69.93
2022-11-01T11:55:39.981Z,70.80
2022-11-01T11:58:19.680Z,68.85
2022-11-01T12:00:54.847Z,68.84
2022-11-01T12:03:23.913Z,69.11
2022-11-01T12:05:54.526Z,68.31
2022-11-01T12:08:31.728Z,67.89
2022-11-01T12:10:59.728Z,68.26
2022-11-01T12:13:38.357Z,68.06
2022-11-01T12:16:24.904Z,68.60
2022-11-01T12:18:58.517Z,67.12
2022-11-01T12:21:34.778Z,67.40
2022-11-01T12:24:05.344Z,67.96
2022-11-01T12:26:36.466Z,68.66
2022-11-01T12:29:39.000Z,67.36
2022-11-01T12:32:14.595Z,66.08
2022-11-01T12:34:45.140Z,65.77
2022-11-01T12:37:35.474Z,65.81
2022-11-01T12:40:24.075Z,66.16
2022-11-01T12:43:01.248Z,65.61
2022-11-01T12:45:36.602Z,65.07
2022-11-01T12:48:09.608Z,65.23
2022-11-01T12:50:48.942Z,66.21
2022-11-01T12:53:23.425Z,66.13
2022-11-01T12:55:51.154Z,68.17
2022-11-01T12:58:21.717Z,66.71
2022-11-01T13:01:01.743Z,66.34
2022-11-01T13:03:52.508Z,67.14
2022-11-01T13:06:41.888Z,65.92
2022-11-01T13:09:28.115Z,66.99
2022-11-01T13:12:09.268Z,68.50
2022-11-01T13:15:00.778Z,68.28
2022-11-01T13:17:46.421Z,67.95
2022-11-01T13:20:26.350Z,67.65
2022-11-01T13:23:06.554Z,67.34
2022-11-01T13:25:58.886Z,66.57
2022-11-01T13:28:48.395Z,66.48
2022-11-01T13:31:21.999Z,65.92
2022-11-01T13:34:13.840Z,65.08
2022-11-01T13:36:57.282Z,65.89
2022-11-01T13:39:51.416Z,64.99
2022-11-01T13:42:24.455Z,66.05
2022-11-01T13:45:36.696Z,65.36
2022-11-01T13:48:37.136Z,65.97
2022-11-01T13:51:38.093Z,68.96
2022-11-01T13:54:25.975Z,69.52
2022-11-01T13:57:01.156Z,70.13
2022-11-01T13:59:44.757Z,68.72
2022-11-01T14:02:24.616Z,67.22
2022-11-01T14:05:00.641Z,68.28
2022-11-01T14:07:35.851Z,69.00
2022-11-01T14:10:19.131Z,69.95
2022-11-01T14:13:12.134Z,70.20
2022-11-01T14:15:55.170Z,69.72
2022-11-01T14:18:26.589Z,69.05
2022-11-01T14:20:55.965Z,68.62
2022-11-01T14:23:27.335Z,69.10
2022-11-01T14:26:20.296Z,69.15
2022-11-01T14:28:49.919Z,68.79
2022-11-01T14:31:24.549Z,68.78
2022-11-01T14:33:56.161Z,69.37
2022-11-01T14:36:31.136Z,69.59
2022-11-01T14:39:17.820Z,70.03
2022-11-01T14:41:52.365Z,69.86
2022-11-01T14:44:34.839Z,69.22
2022-11-01T14:47:16.331Z,69.66
2022-11-01T14:49:44.761Z,69.80
2022-11-01T14:52:32.230Z,70.28
2022-11-01T14:55:00.105Z,70.27
2022-11-01T14:57:30.590Z,70.65
2022-11-01T14:59:59.896Z,70.36
2022-11-01T15:02:29.233Z,70.66
2022-11-01T15:04:59.521Z,69.88
2022-11-01T15:07:36.890Z,69.50
2022-11-01T15:10:06.413Z,70.31
2022-11-01T15:12:46.614Z,70.76
2022-11-01T15:15:27.035Z,70.77
2022-11-01T15:17:56.969Z,70.19
2022-11-01T15:20:34.968Z,70.76
2022-11-01T15:23:08.011Z,70.74
2022-11-01T15:25:36.940Z,71.04
2022-11-01T15:28:05.201Z,70.34
2022-11-01T15:30:39.296Z,68.96
2022-11-01T15:33:21.453Z,69.17
2022-11-01T15:35:59.506Z,69.63
2022-11-01T15:38:30.145Z,70.31
2022-11-01T15:40:59.000Z,70.69
2022-11-01T15:43:28.358Z,71.48
2022-11-01T15:46:01.782Z,71.11
2022-11-01T15:48:33.170Z,70.36
2022-11-01T15:51:05.369Z,71.68
2022-11-01T15:53:35.899Z,71.82
2022-11-01T15:56:15.903Z,70.63
2022-11-01T16:01:28.290Z,73.01
2022-11-01T16:04:05.212Z,71.01
2022-11-01T16:06:42.147Z,71.33
2022-11-01T16:09:47.387Z,71.39
2022-11-01T16:12:22.487Z,69.64
2022-11-01T16:14:54.886Z,69.84
2022-11-01T16:17:33.146Z,71.74
2022-11-01T16:20:05.567Z,72.17
2022-11-01T16:22:36.123Z,71.11
2022-11-01T16:25:07.645Z,71.59
2022-11-01T16:27:36.181Z,70.84
2022-11-01T16:30:10.777Z,70.74
2022-11-01T16:33:19.148Z,70.42
2022-11-01T16:35:49.636Z,71.47
2022-11-01T16:38:39.838Z,71.36
2022-11-01T16:41:24.196Z,71.90
2022-11-01T16:43:54.967Z,70.44
2022-11-01T16:46:25.253Z,69.83
2022-11-01T16:48:59.117Z,70.34
2022-11-01T16:51:30.568Z,70.72
2022-11-01T16:54:03.143Z,70.66
2022-11-01T16:56:42.548Z,71.40
2022-11-01T16:59:34.613Z,70.71
2022-11-01T17:02:15.321Z,72.96
2022-11-01T17:04:45.228Z,72.71
2022-11-01T17:07:16.752Z,72.25
2022-11-01T17:09:45.128Z,72.89
2022-11-01T17:12:14.143Z,72.35
2022-11-01T17:14:43.094Z,72.33
2022-11-01T17:17:15.884Z,71.30
2022-11-01T17:19:48.716Z,71.58
2022-11-01T17:22:36.680Z,71.14
2022-11-01T17:25:06.930Z,70.23
2022-11-01T17:27:35.281Z,70.39
2022-11-01T17:30:09.725Z,70.45
2022-11-01T17:32:43.151Z,70.07
2022-11-01T17:35:12.086Z,70.87
2022-11-01T17:37:42.167Z,71.66
2022-11-01T17:40:21.976Z,71.27
2022-11-01T17:42:51.677Z,71.75
2022-11-01T17:45:20.589Z,72.26
2022-11-01T17:47:49.002Z,72.47
2022-11-01T17:50:17.576Z,72.05
2022-11-01T17:52:47.660Z,71.63
2022-11-01T17:55:16.070Z,71.13
2022-11-01T17:57:50.038Z,71.47
2022-11-01T18:00:20.448Z,71.90
2022-11-01T18:03:15.714Z,73.09
2022-11-01T18:06:03.957Z,72.71
2022-11-01T18:08:54.097Z,72.82
2022-11-01T18:12:01.813Z,73.17
2022-11-01T18:15:19.566Z,72.65
2022-11-01T18:18:14.196Z,73.58
2022-11-01T18:21:16.987Z,73.04
2022-11-01T18:23:48.272Z,73.88
2022-11-01T18:26:23.176Z,73.80
2022-11-01T18:29:40.147Z,73.67
2022-11-01T18:32:23.750Z,73.78
2022-11-01T18:35:00.276Z,74.24
2022-11-01T18:37:42.726Z,73.61
2022-11-01T18:40:23.331Z,73.62
2022-11-01T18:42:53.317Z,74.67
2022-11-01T18:45:30.970Z,74.12
2022-11-01T18:48:16.342Z,74.12
2022-11-01T18:50:44.164Z,74.43
2022-11-01T18:53:17.735Z,74.51
2022-11-01T18:55:49.437Z,74.47
2022-11-01T18:58:24.359Z,74.26
2022-11-01T19:01:02.595Z,75.22
2022-11-01T19:03:31.781Z,74.80
2022-11-01T19:06:13.777Z,74.33
2022-11-01T19:08:42.059Z,74.38
2022-11-01T19:11:12.226Z,74.65
2022-11-01T19:13:41.709Z,74.27
2022-11-01T19:16:18.322Z,73.69
2022-11-01T19:18:48.193Z,74.21
2022-11-01T19:21:22.012Z,74.21
2022-11-01T19:23:54.206Z,74.26
2022-11-01T19:26:30.751Z,75.54
2022-11-01T19:28:59.044Z,75.55
2022-11-01T19:31:38.404Z,74.85
2022-11-01T19:34:22.862Z,75.59
2022-11-01T19:36:55.319Z,75.24
2022-11-01T19:39:44.556Z,75.32
2022-11-01T19:42:23.229Z,75.44
2022-11-01T19:44:56.218Z,75.00
2022-11-01T19:47:36.186Z,75.62
2022-11-01T19:50:26.758Z,74.94
2022-11-01T19:52:57.356Z,75.82
2022-11-01T19:55:31.350Z,75.71
2022-11-01T19:57:59.819Z,75.77
2022-11-01T20:00:29.301Z,75.95
2022-11-01T20:03:00.711Z,75.44
2022-11-01T20:05:36.585Z,75.11
2022-11-01T20:08:34.394Z,75.43
2022-11-01T20:11:02.139Z,75.79
2022-11-01T20:13:30.591Z,74.90
2022-11-01T20:15:58.304Z,75.45
2022-11-01T20:18:27.018Z,75.41
2022-11-01T20:20:56.546Z,75.11
2022-11-01T20:23:26.905Z,75.22
2022-11-01T20:25:55.400Z,75.62
2022-11-01T20:28:23.221Z,75.47
2022-11-01T20:30:51.495Z,75.22
2022-11-01T20:33:20.042Z,74.73
2022-11-01T20:35:49.226Z,75.66
2022-11-01T20:38:17.329Z,76.14
2022-11-01T20:40:46.193Z,75.39
2022-11-01T20:43:14.052Z,75.45
2022-11-01T20:45:42.050Z,74.92
2022-11-01T20:48:10.451Z,75.43
2022-11-01T20:50:38.173Z,76.22
2022-11-01T20:53:06.742Z,75.38
2022-11-01T20:55:35.431Z,74.42
2022-11-01T20:58:04.117Z,75.28
2022-11-01T21:00:32.298Z,74.71
2022-11-01T21:03:04.395Z,74.93
2022-11-01T21:05:34.752Z,75.36
2022-11-01T21:08:28.073Z,74.45
2022-11-01T21:11:03.664Z,75.13
2022-11-01T21:13:34.327Z,75.49
2022-11-01T21:16:03.702Z,75.38
2022-11-01T21:18:38.655Z,74.94
2022-11-01T21:21:15.663Z,75.29
2022-11-01T21:23:44.852Z,74.73
2022-11-01T21:26:25.799Z,74.64
2022-11-01T21:28:58.924Z,74.67
2022-11-01T21:31:29.386Z,74.35
2022-11-01T21:34:05.897Z,74.21
2022-11-01T21:36:42.496Z,74.01
2022-11-01T21:39:18.550Z,74.54
2022-11-01T21:41:49.824Z,74.38
2022-11-01T21:44:34.730Z,75.21
2022-11-01T21:47:14.903Z,74.32
2022-11-01T21:49:43.455Z,74.26
2022-11-01T21:52:12.612Z,74.06
2022-11-01T21:54:41.991Z,73.94
2022-11-01T21:57:11.816Z,74.25
2022-11-01T21:59:40.088Z,74.22
2022-11-01T22:02:11.125Z,74.56
2022-11-01T22:04:39.716Z,74.50
2022-11-01T22:07:08.915Z,74.77
2022-11-01T22:09:37.836Z,74.51
2022-11-01T22:12:08.741Z,74.35
2022-11-01T22:14:37.488Z,74.30
2022-11-01T22:17:05.654Z,74.43
2022-11-01T22:19:33.297Z,74.81
2022-11-01T22:22:00.953Z,75.75
2022-11-01T22:24:29.687Z,75.06
2022-11-01T22:26:57.344Z,75.35
2022-11-01T22:29:25.032Z,76.11
2022-11-01T22:31:52.991Z,75.39
2022-11-01T22:34:21.302Z,74.74
2022-11-01T22:36:49.028Z,75.18
2022-11-01T22:39:21.054Z,75.37
2022-11-01T22:41:48.890Z,75.12
2022-11-01T22:44:21.923Z,74.74
2022-11-01T22:46:55.144Z,74.06
2022-11-01T22:49:40.665Z,74.12
2022-11-01T22:52:35.128Z,73.92
2022-11-01T22:55:15.116Z,74.35
2022-11-01T22:57:57.523Z,74.60
2022-11-01T23:00:33.386Z,74.30
2022-11-01T23:03:09.872Z,74.56
2022-11-01T23:05:38.414Z,74.54
2022-11-01T23:08:41.872Z,74.80
2022-11-01T23:11:34.325Z,76.20
2022-11-01T23:14:45.448Z,75.62
2022-11-01T23:17:21.336Z,75.45
2022-11-01T23:19:59.352Z,75.32
2022-11-01T23:22:33.585Z,74.95
2022-11-01T23:25:01.278Z,75.61
2022-11-01T23:27:29.872Z,76.06
2022-11-01T23:30:02.089Z,76.51
2022-11-01T23:32:32.157Z,77.18
2022-11-01T23:35:21.628Z,75.99
2022-11-01T23:37:50.301Z,75.98
2022-11-01T23:40:21.187Z,75.70
2022-11-01T23:42:49.235Z,75.81
2022-11-01T23:45:27.248Z,76.42
2022-11-01T23:47:55.720Z,75.48
2022-11-01T23:50:34.268Z,75.36
2022-11-01T23:53:06.322Z,75.24
2022-11-01T23:55:38.512Z,75.57
2022-11-01T23:58:10.164Z,75.43
